Time;durP1;ratioP1;P1;durP2;ratioP2;P2;SDS_P1;SDS_P2;PMS_P1;PMS_P2;Temp;Humidity;BMP_temperature;BMP_pressure;BME280_temperature;BME280_humidity;BME280_pressure;Samples;Min_cycle;Max_cycle;Signal;HPM_P1;HPM_P2
2022/12/21 00:02:06;;;;;;;;;3.75;3.75;;;;;10.67;82.85;99292.44;5055217;28;8846;-59
2022/12/21 00:04:34;;;;;;;;;4.00;3.00;;;;;10.67;82.48;99287.13;5055022;28;8854;-59
2022/12/21 00:07:02;;;;;;;;;3.75;3.75;;;;;10.68;82.48;99296.78;5054628;28;8850;-59
2022/12/21 00:09:30;;;;;;;;;5.00;4.50;;;;;10.68;82.50;99294.13;5055135;28;8838;-58
2022/12/21 00:11:58;;;;;;;;;5.25;5.00;;;;;10.70;82.50;99291.34;5055368;28;8814;-58
2022/12/21 00:14:25;;;;;;;;;3.00;3.00;;;;;10.71;82.82;99293.84;5058497;28;8853;-58
2022/12/21 00:16:53;;;;;;;;;3.75;3.00;;;;;10.71;82.44;99293.84;5059042;28;8853;-58
2022/12/21 00:19:21;;;;;;;;;9.00;5.50;;;;;10.73;82.80;99297.22;5058775;28;8857;-59
2022/12/21 00:21:48;;;;;;;;;4.50;4.50;;;;;10.74;82.38;99298.91;5058471;28;8826;-59
2022/12/21 00:24:17;;;;;;;;;6.00;6.00;;;;;10.75;82.99;99297.06;5058921;28;8857;-59
2022/12/21 00:26:46;;;;;;;;;6.00;4.00;;;;;10.74;82.38;99304.22;5059154;28;8843;-59
2022/12/21 00:29:13;;;;;;;;;3.75;3.00;;;;;10.75;82.76;99305.06;5059630;28;8842;-59
2022/12/21 00:31:41;;;;;;;;;6.00;5.50;;;;;10.75;82.52;99308.56;5058958;28;8810;-58
2022/12/21 00:34:12;;;;;;;;;6.50;5.00;;;;;10.75;82.68;99311.22;5048694;28;8834;-58
2022/12/21 00:36:40;;;;;;;;;6.50;5.50;;;;;10.76;82.54;99310.25;5029685;28;8870;-59
2022/12/21 00:39:08;;;;;;;;;5.50;4.00;;;;;10.77;82.74;99316.44;5032427;28;8832;-59
2022/12/21 00:41:37;;;;;;;;;7.50;6.75;;;;;10.77;82.68;99317.25;5039158;28;9487;-59
2022/12/21 00:44:04;;;;;;;;;9.50;7.75;;;;;10.76;83.13;99315.56;5038295;28;8874;-59
2022/12/21 00:46:32;;;;;;;;;5.50;5.50;;;;;10.76;82.87;99320.91;5037829;28;8914;-59
2022/12/21 00:49:00;;;;;;;;;9.00;6.25;;;;;10.75;82.82;99316.56;5037955;28;8847;-56
2022/12/21 00:51:28;;;;;;;;;8.50;7.00;;;;;10.74;83.19;99306.91;5037906;28;8906;-60
2022/12/21 00:53:56;;;;;;;;;11.00;10.00;;;;;10.74;82.68;99314.88;5038114;28;8962;-59
2022/12/21 00:56:24;;;;;;;;;6.00;6.00;;;;;10.73;83.26;99318.53;5037651;28;8858;-59
2022/12/21 00:58:51;;;;;;;;;7.50;6.75;;;;;10.73;82.74;99307.03;5038104;28;8843;-59
2022/12/21 01:01:19;;;;;;;;;6.00;6.00;;;;;10.71;83.13;99309.81;5038039;28;8833;-59
2022/12/21 01:03:48;;;;;;;;;7.00;7.00;;;;;10.71;83.28;99309.81;5038748;28;8824;-59
2022/12/21 01:06:16;;;;;;;;;9.25;6.50;;;;;10.70;82.99;99313.47;5038267;28;8868;-59
2022/12/21 01:08:43;;;;;;;;;5.50;5.50;;;;;10.70;83.03;99301.97;5038093;28;8825;-58
2022/12/21 01:11:11;;;;;;;;;0.50;0.00;;;;;10.69;83.20;99300.31;5038185;28;8820;-59
2022/12/21 01:13:38;;;;;;;;;9.25;9.25;;;;;10.70;83.47;99301.97;5038314;28;8821;-60
2022/12/21 01:16:07;;;;;;;;;8.75;8.00;;;;;10.68;82.85;99302.13;5038249;28;8833;-59
2022/12/21 01:18:34;;;;;;;;;6.75;6.00;;;;;10.68;82.64;99304.78;5038349;28;8876;-57
2022/12/21 01:21:02;;;;;;;;;6.00;6.00;;;;;10.66;83.36;99296.09;5037923;28;8816;-59
2022/12/21 01:23:30;;;;;;;;;7.00;6.50;;;;;10.68;82.76;99298.59;5038216;28;8970;-59
2022/12/21 01:25:57;;;;;;;;;8.50;7.00;;;;;10.66;83.10;99298.75;5038286;28;8837;-59
2022/12/21 01:28:25;;;;;;;;;7.00;6.50;;;;;10.66;83.31;99312.06;5037964;28;8856;-59
2022/12/21 01:30:53;;;;;;;;;6.75;6.25;;;;;10.66;83.18;99313.88;5037136;28;8986;-59
2022/12/21 01:33:21;;;;;;;;;8.50;6.00;;;;;10.67;83.11;99319.06;5037208;28;8824;-59
2022/12/21 01:35:48;;;;;;;;;5.00;4.00;;;;;10.65;82.79;99313.06;5037301;28;8829;-59
2022/12/21 01:38:16;;;;;;;;;8.50;6.00;;;;;10.66;83.07;99319.19;5036950;28;8955;-59
2022/12/21 01:40:44;;;;;;;;;4.00;4.00;;;;;10.65;83.00;99321.03;5037338;28;9499;-59
2022/12/21 01:43:12;;;;;;;;;7.00;6.25;;;;;10.65;83.24;99323.69;5036916;28;8832;-59
2022/12/21 01:45:39;;;;;;;;;5.00;5.00;;;;;10.64;83.10;99319.38;5037709;28;9530;-58
2022/12/21 01:48:07;;;;;;;;;7.00;7.00;;;;;10.64;83.37;99319.38;5037859;28;8987;-57
2022/12/21 01:50:35;;;;;;;;;6.00;1.00;;;;;10.64;83.03;99314.03;5037692;28;8821;-57
2022/12/21 01:53:03;;;;;;;;;8.00;7.75;;;;;10.64;83.20;99323.81;5037838;28;8816;-57
2022/12/21 01:55:31;;;;;;;;;6.75;6.75;;;;;10.63;82.91;99322.97;5037356;28;8824;-56
2022/12/21 01:57:59;;;;;;;;;3.50;3.00;;;;;10.63;82.77;99328.31;5037564;28;8909;-58
2022/12/21 02:00:26;;;;;;;;;6.00;6.00;;;;;10.63;83.08;99330.97;5037229;28;9528;-56
2022/12/21 02:02:54;;;;;;;;;6.00;5.00;;;;;10.64;82.97;99332.69;5037340;28;8852;-59
2022/12/21 02:05:22;;;;;;;;;7.25;6.25;;;;;10.62;83.18;99339.94;5037117;28;8886;-59
2022/12/21 02:07:51;;;;;;;;;5.00;4.50;;;;;10.61;83.37;99330.28;5037168;28;8828;-58
2022/12/21 02:10:19;;;;;;;;;9.00;8.00;;;;;10.61;83.36;99340.09;5037433;28;8834;-58
2022/12/21 02:12:46;;;;;;;;;7.00;7.00;;;;;10.59;83.74;99332.22;5037102;28;8871;-60
2022/12/21 02:15:14;;;;;;;;;6.25;6.25;;;;;10.59;83.61;99345.53;5037093;28;8852;-58
2022/12/21 02:17:42;;;;;;;;;7.50;7.50;;;;;10.59;83.62;99342.88;5037349;28;8837;-59
2022/12/21 02:20:10;;;;;;;;;6.00;6.00;;;;;10.57;83.37;99339.53;5036980;28;8860;-59
2022/12/21 02:22:37;;;;;;;;;3.25;3.00;;;;;10.59;83.03;99342.03;5037148;28;8856;-59
2022/12/21 02:25:05;;;;;;;;;8.50;6.75;;;;;10.58;83.66;99345.66;5037227;28;8833;-58
2022/12/21 02:27:32;;;;;;;;;6.50;5.50;;;;;10.56;83.15;99342.31;5037022;28;8837;-59
2022/12/21 02:30:01;;;;;;;;;7.75;6.25;;;;;10.56;83.15;99337.81;5036831;28;8831;-58
2022/12/21 02:32:28;;;;;;;;;6.50;6.00;;;;;10.55;83.52;99336.13;5036941;28;8817;-59
2022/12/21 02:34:56;;;;;;;;;6.50;4.00;;;;;10.54;83.24;99339.78;5036954;28;8873;-58
2022/12/21 02:37:24;;;;;;;;;5.50;4.00;;;;;10.54;83.25;99328.31;5036540;28;8871;-57
2022/12/21 02:39:51;;;;;;;;;6.25;6.25;;;;;10.54;83.99;99328.31;5036950;28;8828;-57
2022/12/21 02:45:01;;;;;;;;;9.00;9.00;;;;;10.52;83.66;99328.44;5036955;28;9541;-59
2022/12/21 02:47:28;;;;;;;;;6.00;5.00;;;;;10.53;83.13;99335.44;5036771;28;8845;-58
2022/12/21 02:49:56;;;;;;;;;4.00;4.00;;;;;10.51;83.92;99334.75;5036284;28;8887;-59
2022/12/21 02:52:24;;;;;;;;;5.00;4.50;;;;;10.51;84.05;99339.22;5036437;28;8824;-58
2022/12/21 02:54:52;;;;;;;;;6.75;6.00;;;;;10.50;83.44;99335.72;5036498;28;8836;-57
2022/12/21 02:57:19;;;;;;;;;3.00;3.00;;;;;10.50;83.52;99332.19;5036691;28;8837;-59
2022/12/21 02:59:47;;;;;;;;;8.25;7.50;;;;;10.49;83.24;99320.72;5036438;28;8828;-57
2022/12/21 03:02:14;;;;;;;;;3.50;2.00;;;;;10.49;83.71;99327.84;5036246;28;8824;-58
2022/12/21 03:04:42;;;;;;;;;4.25;3.75;;;;;10.47;83.58;99330.66;5036386;28;9522;-58
2022/12/21 03:07:10;;;;;;;;;7.00;7.00;;;;;10.47;83.60;99332.50;5036450;28;8828;-59
2022/12/21 03:09:37;;;;;;;;;5.50;5.50;;;;;10.47;83.58;99332.50;5036443;28;8840;-58
2022/12/21 03:12:05;;;;;;;;;5.00;5.00;;;;;10.46;83.47;99331.63;5036287;28;8832;-58
2022/12/21 03:14:33;;;;;;;;;6.75;6.50;;;;;10.46;83.80;99326.31;5036011;28;8844;-59
2022/12/21 03:17:01;;;;;;;;;6.50;6.00;;;;;10.46;83.78;99336.13;5035714;28;8845;-58
2022/12/21 03:19:29;;;;;;;;;8.00;7.00;;;;;10.45;83.81;99337.94;5036040;28;8836;-58
2022/12/21 03:21:56;;;;;;;;;6.50;5.00;;;;;10.44;83.58;99333.59;5035739;28;8828;-58
2022/12/21 03:24:24;;;;;;;;;6.00;6.00;;;;;10.44;84.08;99328.28;5035982;28;8820;-59
2022/12/21 03:26:52;;;;;;;;;6.00;6.00;;;;;10.43;83.96;99337.25;5034950;28;8844;-59
2022/12/21 03:29:20;;;;;;;;;6.00;6.00;;;;;10.43;84.13;99342.56;5035856;28;8833;-59
2022/12/21 03:31:47;;;;;;;;;4.00;4.00;;;;;10.43;83.71;99339.03;5035971;28;8847;-59
2022/12/21 03:34:15;;;;;;;;;6.25;6.00;;;;;10.41;83.78;99333.84;5035688;28;8832;-59
2022/12/21 03:36:43;;;;;;;;;10.75;6.50;;;;;10.41;84.02;99328.53;5035815;28;8832;-59
2022/12/21 03:39:11;;;;;;;;;1.00;1.00;;;;;10.41;83.69;99328.53;5035411;28;8848;-57
2022/12/21 03:41:39;;;;;;;;;6.75;6.00;;;;;10.40;83.66;99323.38;5035157;28;8836;-58
2022/12/21 03:44:07;;;;;;;;;6.50;4.50;;;;;10.39;84.20;99313.69;5035479;28;8833;-58
2022/12/21 03:46:35;;;;;;;;;6.75;6.50;;;;;10.39;83.58;99314.53;5035320;28;8836;-58
2022/12/21 03:49:02;;;;;;;;;8.50;7.00;;;;;10.39;83.65;99309.19;5038152;28;8832;-56
2022/12/21 03:51:30;;;;;;;;;6.50;6.50;;;;;10.38;84.33;99306.66;5039692;28;8847;-58
2022/12/21 03:53:58;;;;;;;;;6.75;6.00;;;;;10.36;83.69;99309.47;5039490;28;8882;-59
2022/12/21 03:56:26;;;;;;;;;9.25;8.00;;;;;10.34;83.85;99311.44;5039775;28;8828;-59
2022/12/21 03:58:54;;;;;;;;;3.00;1.00;;;;;10.35;83.78;99307.81;5039739;28;8825;-59
2022/12/21 04:01:22;;;;;;;;;6.50;5.50;;;;;10.35;84.09;99313.13;5039388;28;8840;-58
2022/12/21 04:03:49;;;;;;;;;5.50;4.50;;;;;10.36;84.39;99308.63;5039317;28;8911;-59
2022/12/21 04:06:17;;;;;;;;;6.00;6.00;;;;;10.36;83.74;99311.28;5039673;28;8918;-57
2022/12/21 04:08:45;;;;;;;;;5.50;5.00;;;;;10.37;84.10;99311.16;5039020;28;8848;-59
2022/12/21 04:12:36;;;;;;;;;3.00;3.00;;;;;10.37;83.96;99297.84;5039486;28;8855;-58
2022/12/21 04:13:59;;;;;;;;;9.75;8.50;;;;;10.37;83.82;99295.19;5039367;28;8855;-59
2022/12/21 04:16:27;;;;;;;;;7.00;6.00;;;;;10.38;83.88;99296.03;5039323;28;9533;-59
2022/12/21 04:21:39;;;;;;;;;6.00;5.00;;;;;10.36;83.91;99293.50;5038709;28;8844;-58
2022/12/21 04:29:52;;;;;;;;;3.00;3.00;;;;;10.35;83.69;99277.69;5037726;28;8845;-59
2022/12/21 04:32:20;;;;;;;;;3.25;0.50;;;;;10.34;84.19;99270.69;5037261;28;8845;-59
2022/12/21 04:34:48;;;;;;;;;6.00;5.50;;;;;10.30;84.07;99259.47;5037602;28;8840;-59
2022/12/21 04:37:35;;;;;;;;;3.50;3.50;;;;;10.28;84.36;99265.91;5037929;28;8870;-59
2022/12/21 04:40:03;;;;;;;;;6.50;6.00;;;;;10.26;84.34;99273.19;5038504;28;8828;-59
2022/12/21 04:42:31;;;;;;;;;1.00;1.00;;;;;10.20;83.89;99274.56;5038720;28;8840;-59
2022/12/21 04:44:58;;;;;;;;;3.75;3.50;;;;;10.17;83.89;99266.84;5039004;28;8841;-59
2022/12/21 04:47:26;;;;;;;;;2.00;2.00;;;;;10.14;84.30;99275.13;5039120;28;8860;-59
2022/12/21 04:49:54;;;;;;;;;2.00;1.50;;;;;10.11;84.66;99277.19;5038767;28;8836;-58
2022/12/21 04:52:21;;;;;;;;;2.00;2.00;;;;;10.08;84.38;99266.84;5038477;28;8829;-59
2022/12/21 04:54:49;;;;;;;;;4.50;3.50;;;;;10.05;84.50;99270.59;5038495;28;8828;-59
2022/12/21 04:57:17;;;;;;;;;5.00;4.00;;;;;10.04;84.17;99260.09;5038218;28;8809;-59
2022/12/21 04:59:45;;;;;;;;;3.00;3.00;;;;;10.02;84.24;99267.34;5037677;28;8967;-59
2022/12/21 05:02:13;;;;;;;;;7.00;6.00;;;;;10.01;84.85;99263.81;5037617;28;8828;-59
2022/12/21 05:04:41;;;;;;;;;3.25;3.00;;;;;10.01;84.43;99260.34;5038019;28;8844;-59
2022/12/21 05:07:09;;;;;;;;;5.50;5.50;;;;;10.02;84.64;99270.00;5037898;28;8856;-59
2022/12/21 05:09:36;;;;;;;;;7.00;3.75;;;;;10.02;84.37;99273.50;5037410;28;8824;-59
2022/12/21 05:12:04;;;;;;;;;6.00;4.00;;;;;10.01;84.65;99274.47;5037597;28;8839;-58
2022/12/21 05:14:32;;;;;;;;;3.50;3.00;;;;;9.99;84.76;99273.78;5037937;28;8852;-58
2022/12/21 05:16:59;;;;;;;;;6.50;6.50;;;;;10.00;84.25;99271.94;5037846;28;8861;-58
2022/12/21 05:19:27;;;;;;;;;3.00;3.00;;;;;9.98;84.55;99269.44;5037485;28;8824;-62
2022/12/21 05:21:55;;;;;;;;;4.50;4.00;;;;;10.00;84.60;99258.63;5037643;28;9519;-59
2022/12/21 05:24:23;;;;;;;;;4.50;2.50;;;;;10.03;84.63;99258.41;5037555;28;8843;-59
2022/12/21 05:26:50;;;;;;;;;4.75;3.75;;;;;10.04;84.50;99260.94;5037612;28;8813;-59
2022/12/21 05:29:18;;;;;;;;;3.00;3.00;;;;;10.05;84.09;99272.41;5037602;28;8918;-59
2022/12/21 05:31:46;;;;;;;;;6.00;6.00;;;;;10.04;84.48;99266.28;5037347;28;8827;-59
2022/12/21 05:34:13;;;;;;;;;5.75;4.00;;;;;10.05;84.24;99267.09;5037123;28;8836;-59
2022/12/21 05:36:41;;;;;;;;;6.00;4.00;;;;;10.05;84.37;99270.59;5036642;28;8835;-59
2022/12/21 05:39:09;;;;;;;;;5.00;3.00;;;;;10.05;83.96;99267.94;5037725;28;8845;-59
2022/12/21 05:41:36;;;;;;;;;4.00;3.50;;;;;10.05;84.56;99267.94;5037301;28;8836;-59
2022/12/21 05:44:05;;;;;;;;;1.00;0.75;;;;;10.04;84.67;99268.94;5036604;28;8844;-59
2022/12/21 05:46:33;;;;;;;;;5.00;3.75;;;;;10.05;83.88;99267.94;5036508;28;8824;-57
2022/12/21 05:49:01;;;;;;;;;5.50;5.50;;;;;10.05;84.36;99278.59;5036253;28;8841;-58
2022/12/21 05:51:28;;;;;;;;;6.50;4.50;;;;;10.04;83.97;99268.94;5036474;28;9526;-59
2022/12/21 05:53:56;;;;;;;;;7.00;6.00;;;;;10.05;84.42;99270.59;5036367;28;8832;-59
2022/12/21 05:56:24;;;;;;;;;3.50;3.00;;;;;10.05;84.27;99267.94;5036540;28;8910;-59
2022/12/21 05:58:51;;;;;;;;;4.50;4.00;;;;;10.07;84.42;99265.13;5035978;28;8832;-60
2022/12/21 06:01:19;;;;;;;;;6.00;6.00;;;;;10.08;84.36;99265.00;5036309;28;8828;-57
2022/12/21 06:03:47;;;;;;;;;6.00;6.00;;;;;10.10;84.30;99268.38;5036080;28;8854;-58
2022/12/21 06:06:15;;;;;;;;;1.50;1.50;;;;;10.11;84.29;99264.72;5036556;28;8962;-59
2022/12/21 06:08:43;;;;;;;;;4.00;3.00;;;;;10.11;84.03;99261.25;5036573;28;9494;-58
2022/12/21 06:11:10;;;;;;;;;5.50;5.50;;;;;10.11;84.44;99264.72;5034965;28;8894;-59
2022/12/21 06:13:39;;;;;;;;;5.00;5.00;;;;;10.12;84.25;99263.78;5035459;28;8829;-57
2022/12/21 06:16:07;;;;;;;;;4.00;4.00;;;;;10.12;84.50;99258.44;5036124;28;8847;-59
2022/12/21 06:18:35;;;;;;;;;5.50;4.00;;;;;10.12;83.80;99266.44;5036524;28;8979;-59
2022/12/21 06:21:02;;;;;;;;;8.50;7.25;;;;;10.12;84.12;99269.09;5035188;28;8843;-60
2022/12/21 06:23:30;;;;;;;;;3.75;3.75;;;;;10.12;84.03;99273.56;5035147;28;8947;-60
2022/12/21 06:25:58;;;;;;;;;6.75;6.75;;;;;10.10;84.36;99271.03;5034841;28;9502;-60
2022/12/21 06:28:26;;;;;;;;;6.00;6.00;;;;;10.10;84.13;99263.03;5034486;28;8855;-60
2022/12/21 06:30:54;;;;;;;;;6.00;4.50;;;;;10.10;84.42;99262.22;5034305;28;8867;-60
2022/12/21 06:33:21;;;;;;;;;5.00;5.00;;;;;10.10;84.38;99264.88;5033880;28;8824;-60
2022/12/21 06:35:49;;;;;;;;;6.75;6.75;;;;;10.11;84.32;99255.91;5033401;28;8837;-60
2022/12/21 06:38:17;;;;;;;;;4.50;4.00;;;;;10.11;84.51;99253.25;5033838;28;8847;-60
2022/12/21 06:40:45;;;;;;;;;3.50;3.50;;;;;10.11;84.32;99267.38;5033870;28;8836;-60
2022/12/21 06:43:12;;;;;;;;;6.75;6.00;;;;;10.11;83.59;99264.72;5033204;28;8840;-60
2022/12/21 06:45:40;;;;;;;;;4.50;4.00;;;;;10.12;83.95;99269.09;5033444;28;8833;-60
2022/12/21 06:48:08;;;;;;;;;4.50;4.00;;;;;10.12;84.26;99266.44;5033319;28;8845;-60
2022/12/21 06:50:36;;;;;;;;;6.25;4.50;;;;;10.12;83.97;99255.78;5033190;28;8851;-60
2022/12/21 06:53:03;;;;;;;;;4.00;4.00;;;;;10.13;84.43;99254.81;5033567;28;9276;-60
2022/12/21 06:55:31;;;;;;;;;3.00;3.00;;;;;10.13;84.12;99256.63;5032815;28;8833;-60
2022/12/21 06:57:59;;;;;;;;;3.75;3.75;;;;;10.12;84.07;99253.13;5032497;28;8859;-58
2022/12/21 07:00:28;;;;;;;;;4.00;4.00;;;;;10.14;84.20;99245.00;5033620;28;8848;-60
2022/12/21 07:02:56;;;;;;;;;4.00;4.00;;;;;10.12;84.26;99250.47;5032975;28;8828;-60
2022/12/21 07:05:24;;;;;;;;;5.00;4.00;;;;;10.11;83.93;99246.09;5030652;28;8864;-60
2022/12/21 07:07:52;;;;;;;;;3.00;2.50;;;;;10.11;83.94;99245.28;5030812;28;8833;-60
2022/12/21 07:10:20;;;;;;;;;3.00;3.00;;;;;10.10;84.68;99243.59;5031842;28;8954;-60
2022/12/21 07:12:48;;;;;;;;;4.00;3.25;;;;;10.09;84.34;99255.22;5031833;28;8850;-60
2022/12/21 07:15:16;;;;;;;;;5.25;5.00;;;;;10.08;84.55;99257.03;5031124;28;8944;-60
2022/12/21 07:17:44;;;;;;;;;4.50;3.75;;;;;10.08;84.23;99256.19;5031733;28;8840;-60
2022/12/21 07:20:11;;;;;;;;;5.00;3.00;;;;;10.07;84.64;99260.66;5031109;28;8844;-60
2022/12/21 07:22:39;;;;;;;;;4.50;4.00;;;;;10.05;84.39;99254.66;5031174;28;8836;-60
2022/12/21 07:25:07;;;;;;;;;0.75;0.75;;;;;10.04;84.17;99260.94;5032203;28;8878;-60
2022/12/21 07:27:35;;;;;;;;;4.00;3.50;;;;;10.04;84.36;99270.72;5032916;28;8848;-60
2022/12/21 07:30:03;;;;;;;;;0.25;0.25;;;;;10.04;84.71;99268.94;5033159;28;8840;-60
2022/12/21 07:32:31;;;;;;;;;6.25;5.50;;;;;10.04;84.44;99263.59;5032516;28;8837;-60
2022/12/21 07:34:59;;;;;;;;;3.00;3.00;;;;;10.06;84.30;99261.66;5033110;28;8840;-60
2022/12/21 07:37:27;;;;;;;;;3.50;3.00;;;;;10.07;84.48;99263.31;5031607;28;8855;-60
2022/12/21 07:39:55;;;;;;;;;4.00;3.25;;;;;10.07;84.59;99255.34;5032036;28;8844;-60
2022/12/21 07:42:22;;;;;;;;;4.00;3.00;;;;;10.06;84.65;99253.66;5031838;28;8848;-58
2022/12/21 07:44:50;;;;;;;;;3.00;3.00;;;;;10.05;84.61;99265.28;5031701;28;8863;-61
2022/12/21 07:47:18;;;;;;;;;3.00;3.00;;;;;10.04;84.70;99250.31;5032675;28;9557;-60
2022/12/21 07:49:46;;;;;;;;;6.25;5.00;;;;;10.04;84.43;99255.63;5032272;28;8856;-60
2022/12/21 07:52:14;;;;;;;;;4.50;3.25;;;;;10.04;84.52;99255.63;5030907;28;8841;-60
2022/12/21 07:54:41;;;;;;;;;4.25;3.25;;;;;10.05;84.50;99246.66;5031227;28;8836;-60
2022/12/21 07:57:17;;;;;;;;;1.00;1.00;;;;;10.03;84.69;99256.56;5033477;28;8840;-59
2022/12/21 07:59:45;;;;;;;;;1.00;1.00;;;;;10.03;84.79;99266.41;5033231;28;8864;-60
2022/12/21 08:02:12;;;;;;;;;3.25;3.00;;;;;10.03;84.72;99264.56;5033166;28;8979;-60
2022/12/21 08:04:40;;;;;;;;;3.00;3.00;;;;;10.03;84.34;99267.22;5033098;28;8824;-59
2022/12/21 08:07:08;;;;;;;;;3.25;3.25;;;;;10.02;84.12;99265.50;5033540;28;8848;-60
2022/12/21 08:09:36;;;;;;;;;4.00;4.00;;;;;10.04;84.70;99270.72;5034072;28;8844;-60
2022/12/21 08:12:03;;;;;;;;;3.25;3.25;;;;;10.03;84.59;99274.38;5033632;28;8853;-59
2022/12/21 08:14:31;;;;;;;;;4.00;3.75;;;;;10.04;84.35;99270.72;5034142;28;8866;-60
2022/12/21 08:16:59;;;;;;;;;3.50;3.00;;;;;10.05;84.30;99275.06;5031989;28;8886;-60
2022/12/21 08:19:27;;;;;;;;;3.50;3.00;;;;;10.07;83.77;99273.97;5032145;28;8840;-60
2022/12/21 08:21:55;;;;;;;;;4.50;4.00;;;;;10.09;84.46;99282.66;5032935;28;8844;-60
2022/12/21 08:24:23;;;;;;;;;2.00;1.50;;;;;10.10;84.46;99284.31;5032482;28;8872;-60
2022/12/21 08:26:51;;;;;;;;;3.00;2.00;;;;;10.11;84.81;99285.19;5032569;28;8864;-60
2022/12/21 08:29:19;;;;;;;;;4.00;4.00;;;;;10.11;83.88;99288.66;5032185;28;8860;-60
2022/12/21 08:31:46;;;;;;;;;2.50;2.50;;;;;10.11;84.24;99283.34;5031258;28;8836;-60
2022/12/21 08:34:15;;;;;;;;;4.50;3.75;;;;;10.13;84.04;99283.22;5032881;28;8848;-60
2022/12/21 08:36:43;;;;;;;;;7.00;5.75;;;;;10.12;84.41;99285.06;5035089;28;9537;-60
2022/12/21 08:39:10;;;;;;;;;2.00;1.00;;;;;10.14;84.28;99272.44;5035686;28;8843;-60
2022/12/21 08:41:38;;;;;;;;;4.00;4.00;;;;;10.17;83.86;99281.97;5035678;28;8847;-60
2022/12/21 08:44:06;;;;;;;;;1.00;1.00;;;;;10.24;84.28;99277.81;5035251;28;8843;-60
2022/12/21 08:46:33;;;;;;;;;1.00;0.25;;;;;10.33;83.83;99267.16;5036593;28;8836;-60
2022/12/21 08:49:02;;;;;;;;;2.00;2.00;;;;;10.43;84.08;99257.41;5036383;28;8951;-60
2022/12/21 08:51:30;;;;;;;;;0.00;0.00;;;;;10.51;83.80;99273.50;5035925;28;9620;-59
2022/12/21 08:53:57;;;;;;;;;3.75;3.00;;;;;10.56;83.51;99276.59;5036858;28;8967;-60
2022/12/21 08:56:25;;;;;;;;;4.00;4.00;;;;;10.60;83.46;99274.47;5035649;28;8846;-58
2022/12/21 08:58:53;;;;;;;;;1.00;1.00;;;;;10.62;83.79;99280.53;5035007;28;8982;-60
2022/12/21 09:01:21;;;;;;;;;2.00;2.00;;;;;10.65;84.00;99282.91;5035135;28;8825;-60
2022/12/21 09:03:49;;;;;;;;;3.00;3.00;;;;;10.73;83.68;99293.72;5034861;28;9554;-60
2022/12/21 09:06:17;;;;;;;;;3.50;2.00;;;;;10.80;83.34;99287.69;5034522;28;8991;-60
2022/12/21 09:08:45;;;;;;;;;2.00;2.00;;;;;10.89;83.06;99289.53;5034952;28;8957;-60
2022/12/21 09:11:13;;;;;;;;;4.00;4.00;;;;;10.96;83.27;99287.97;5034461;28;8978;-60
2022/12/21 09:13:42;;;;;;;;;5.00;3.50;;;;;11.01;82.92;99280.38;5033686;28;8864;-60
2022/12/21 09:16:09;;;;;;;;;2.00;2.00;;;;;11.07;83.16;99293.16;5034312;28;8849;-60
2022/12/21 09:18:37;;;;;;;;;1.00;1.00;;;;;11.13;83.17;99297.91;5034693;28;8840;-60
2022/12/21 09:21:05;;;;;;;;;3.00;3.00;;;;;11.20;83.03;99292.84;5033708;28;9266;-60
2022/12/21 09:23:33;;;;;;;;;3.00;2.00;;;;;11.31;82.91;99285.53;5033614;28;8959;-58
2022/12/21 09:26:03;;;;;;;;;4.50;4.50;;;;;11.39;82.81;99295.50;5033262;28;8970;-60
2022/12/21 09:28:30;;;;;;;;;3.75;3.75;;;;;11.44;82.22;99301.25;5032623;28;8978;-59
2022/12/21 09:30:58;;;;;;;;;4.00;3.75;;;;;11.48;82.41;99294.66;5033536;28;8978;-60
2022/12/21 09:33:26;;;;;;;;;3.00;3.00;;;;;11.50;82.02;99290.84;5034279;28;8840;-59
2022/12/21 09:35:54;;;;;;;;;3.75;3.25;;;;;11.51;82.65;99297.88;5034440;28;9207;-60
2022/12/21 09:38:22;;;;;;;;;5.50;5.50;;;;;11.50;82.17;99300.66;5034921;28;8840;-58
2022/12/21 09:40:50;;;;;;;;;3.75;3.75;;;;;11.48;82.03;99300.84;5035079;28;8824;-59
2022/12/21 09:43:18;;;;;;;;;3.50;3.25;;;;;11.50;82.81;99298.84;5035768;28;8836;-60
2022/12/21 09:45:46;;;;;;;;;3.75;3.00;;;;;11.55;82.45;99301.94;5033307;28;8837;-60
2022/12/21 09:48:14;;;;;;;;;2.00;1.00;;;;;11.59;82.57;99303.34;5034270;28;8883;-60
2022/12/21 09:50:42;;;;;;;;;3.00;3.00;;;;;11.61;82.20;99293.38;5033406;28;9526;-60
2022/12/21 09:53:12;;;;;;;;;3.00;3.00;;;;;11.60;82.35;99291.69;5033294;28;8863;-60
2022/12/21 09:55:40;;;;;;;;;2.00;2.00;;;;;11.59;82.25;99300.69;5031902;28;8887;-60
2022/12/21 09:58:08;;;;;;;;;3.50;3.50;;;;;11.57;82.36;99304.44;5031762;28;8890;-60
2022/12/21 10:00:36;;;;;;;;;1.50;0.50;;;;;11.55;82.23;99301.09;5031595;28;8824;-59
2022/12/21 10:03:05;;;;;;;;;4.00;4.00;;;;;11.53;82.50;99301.22;5031401;28;8929;-60
2022/12/21 10:05:33;;;;;;;;;3.00;3.00;;;;;11.52;82.62;99301.38;5032241;28;8899;-61
2022/12/21 10:08:02;;;;;;;;;3.00;3.00;;;;;11.50;82.71;99303.34;5031377;28;8840;-59
2022/12/21 10:10:29;;;;;;;;;2.00;1.00;;;;;11.47;82.81;99304.47;5032590;28;8832;-60
2022/12/21 10:12:58;;;;;;;;;3.75;3.00;;;;;11.46;82.40;99301.94;5032166;28;8844;-60
2022/12/21 10:15:26;;;;;;;;;5.50;4.00;;;;;11.46;83.04;99297.44;5032508;28;8845;-60
2022/12/21 10:17:54;;;;;;;;;3.75;3.75;;;;;11.50;82.84;99290.84;5032371;28;8995;-60
2022/12/21 10:20:22;;;;;;;;;3.75;3.75;;;;;11.50;82.26;99298.84;5033544;28;8836;-60
2022/12/21 10:22:50;;;;;;;;;4.00;3.50;;;;;11.51;82.69;99302.38;5033043;28;8829;-60
2022/12/21 10:25:17;;;;;;;;;6.00;4.00;;;;;11.50;82.60;99303.34;5032862;28;8848;-59
2022/12/21 10:27:46;;;;;;;;;6.00;4.00;;;;;11.49;82.49;99297.19;5031917;28;8845;-60
2022/12/21 10:30:14;;;;;;;;;4.50;4.00;;;;;11.49;83.03;99299.84;5031544;28;8863;-57
2022/12/21 10:32:42;;;;;;;;;6.00;6.00;;;;;11.50;82.83;99298.84;5031408;28;8852;-60
2022/12/21 10:35:10;;;;;;;;;6.50;6.00;;;;;11.49;82.55;99294.50;5031014;28;9526;-60
2022/12/21 10:37:39;;;;;;;;;3.00;3.00;;;;;11.49;83.12;99307.84;5031788;28;8860;-58
2022/12/21 10:40:06;;;;;;;;;3.25;3.00;;;;;11.48;82.87;99300.84;5031977;28;8832;-59
2022/12/21 10:42:34;;;;;;;;;3.25;3.00;;;;;11.47;82.88;99304.47;5032736;28;9556;-60
2022/12/21 10:45:02;;;;;;;;;2.00;2.00;;;;;11.50;82.76;99308.66;5032742;28;8922;-57
2022/12/21 10:47:30;;;;;;;;;4.50;3.50;;;;;11.52;82.75;99307.53;5033574;28;8857;-60
2022/12/21 10:49:58;;;;;;;;;5.00;4.00;;;;;11.55;83.03;99298.41;5033307;28;8856;-60
2022/12/21 10:52:26;;;;;;;;;3.00;2.50;;;;;11.58;82.71;99306.16;5033622;28;8843;-59
2022/12/21 10:54:54;;;;;;;;;3.00;2.00;;;;;11.69;82.59;99295.34;5033969;28;8840;-60
2022/12/21 10:57:22;;;;;;;;;7.50;6.50;;;;;11.80;82.36;99298.66;5034105;28;8831;-60
2022/12/21 10:59:50;;;;;;;;;2.50;2.50;;;;;11.80;82.32;99303.16;5034791;28;9592;-58
2022/12/21 11:02:18;;;;;;;;;2.50;1.00;;;;;11.74;81.94;99306.41;5032709;28;8848;-59
2022/12/21 11:04:47;;;;;;;;;6.75;4.00;;;;;11.64;82.26;99309.09;5033015;28;8844;-60
2022/12/21 11:07:15;;;;;;;;;3.00;3.00;;;;;11.50;82.65;99304.19;5033400;28;8963;-60
2022/12/21 11:10:03;;;;;;;;;4.00;3.00;;;;;11.35;82.89;99321.59;5032455;28;8844;-60
2022/12/21 11:12:52;;;;;;;;;2.50;2.50;;;;;11.20;83.02;99333.69;5032952;28;8983;-60
2022/12/21 11:15:20;;;;;;;;;4.00;4.00;;;;;11.10;83.27;99327.53;5031641;28;8840;-60
2022/12/21 11:18:08;;;;;;;;;4.00;4.00;;;;;11.01;83.41;99330.19;5031443;28;8918;-60
2022/12/21 11:20:36;;;;;;;;;3.75;3.25;;;;;10.96;83.58;99324.41;5031442;28;8841;-60
2022/12/21 11:23:05;;;;;;;;;4.50;2.00;;;;;10.91;83.67;99316.84;5031137;28;8845;-60
2022/12/21 11:25:33;;;;;;;;;6.00;5.00;;;;;10.86;83.95;99335.06;5031847;28;8852;-60
2022/12/21 11:28:03;;;;;;;;;3.50;3.00;;;;;10.81;83.64;99328.47;5031344;28;8847;-59
2022/12/21 11:30:34;;;;;;;;;4.00;2.50;;;;;10.76;83.90;99333.38;5036251;28;8923;-60
2022/12/21 11:33:06;;;;;;;;;4.00;4.00;;;;;10.73;83.89;99329.19;5047924;28;8833;-59
2022/12/21 11:35:35;;;;;;;;;5.50;5.00;;;;;10.74;84.08;99325.53;5050584;28;8850;-60
2022/12/21 11:38:02;;;;;;;;;5.00;4.00;;;;;10.72;83.98;99327.50;5051862;28;8877;-60
2022/12/21 11:40:30;;;;;;;;;4.00;4.00;;;;;10.71;83.77;99330.28;5052975;28;8842;-59
2022/12/21 11:42:58;;;;;;;;;3.50;3.50;;;;;10.73;83.58;99333.66;5052827;28;9534;-60
2022/12/21 11:45:36;;;;;;;;;4.00;4.00;;;;;10.79;83.74;99322.44;5052996;28;9531;-60
2022/12/21 11:48:05;;;;;;;;;4.50;3.50;;;;;10.87;83.53;99320.78;5053760;28;8862;-60
2022/12/21 11:50:33;;;;;;;;;1.50;1.00;;;;;11.00;83.66;99318.66;5054204;28;8842;-59
2022/12/21 11:53:01;;;;;;;;;2.50;2.50;;;;;11.06;83.25;99314.63;5053150;28;8977;-59
2022/12/21 11:55:29;;;;;;;;;4.50;4.00;;;;;11.04;83.23;99316.56;5052478;28;8866;-59
2022/12/21 11:57:57;;;;;;;;;0.75;0.75;;;;;10.98;83.08;99312.66;5053304;28;9511;-59